< < Back
Terminal Aerodrome Forecast


Current Version              Previous Versions:   1  2  3  4  5  6  7  8  9  

Terminal Aerodrome Forecast

260
FTUS42 KFFC 040413 AAC
TAFCSG
TAF AMD
KCSG 040413Z 0404/0424 30008KT P6SM FEW040 BKN100
      TEMPO 0405/0407 VRB15G30KT 2SM TSRA BR BKN020CB
     FM040700 25004KT P6SM VCSH SCT020 BKN050
     FM041400 28010G17KT P6SM SCT035 BKN100
     FM041800 26012G20KT P6SM SCT045 BKN100 PROB30 0420/0424 4SM
      -TSRA BR BKN025CB=



Latest METAR

031
SAUS70 KWBC 040800
MTRCSG
METAR KCSG 040751Z AUTO 00000KT 10SM -RA FEW039 SCT095 BKN110 21/19
A3007 RMK AO2 TSE11 PRESFR SLP177 P0004 T02060189


USA.gov is the U.S. government's official web portal to all federal, state and local government web resources and services.